Time;durP1;ratioP1;P1;durP2;ratioP2;P2;SDS_P1;SDS_P2;PMS_P1;PMS_P2;Temp;Humidity;BMP_temperature;BMP_pressure;BME280_temperature;BME280_humidity;BME280_pressure;Samples;Min_cycle;Max_cycle;Signal;HPM_P1;HPM_P2
2023/09/26 00:02:09;;;;;;;7.03;5.33;;;17.30;99.90;;;;;;5016218;28;20264;-77
2023/09/26 00:04:34;;;;;;;11.13;5.13;;;17.30;99.90;;;;;;5016473;28;20209;-77
2023/09/26 00:07:02;;;;;;;6.27;5.67;;;17.30;99.90;;;;;;5020425;28;20418;-79
2023/09/26 00:09:29;;;;;;;5.90;5.30;;;17.20;99.90;;;;;;5029528;28;20558;-77
2023/09/26 00:11:55;;;;;;;7.43;6.67;;;17.20;99.90;;;;;;5017906;28;20434;-78
2023/09/26 00:14:21;;;;;;;6.77;5.40;;;17.20;99.90;;;;;;5034387;28;20435;-78
2023/09/26 00:16:47;;;;;;;5.63;5.13;;;17.10;99.90;;;;;;5028376;28;20185;-77
2023/09/26 00:19:12;;;;;;;12.30;6.87;;;17.10;99.90;;;;;;5021593;28;21007;-77
2023/09/26 00:21:38;;;;;;;6.50;5.67;;;17.10;99.90;;;;;;5030426;28;20187;-78
2023/09/26 00:24:04;;;;;;;6.77;6.00;;;17.10;99.90;;;;;;5024619;28;20262;-77
2023/09/26 00:26:29;;;;;;;7.87;5.33;;;17.10;99.90;;;;;;5040088;28;20211;-77
2023/09/26 00:28:55;;;;;;;5.80;5.30;;;17.10;99.90;;;;;;4995296;28;20423;-77
2023/09/26 00:31:21;;;;;;;7.13;5.93;;;17.10;99.90;;;;;;5020069;28;20184;-78
2023/09/26 00:33:47;;;;;;;5.40;4.87;;;17.10;99.90;;;;;;5028272;28;20204;-78
2023/09/26 00:36:13;;;;;;;5.50;5.00;;;17.10;99.90;;;;;;4999300;28;20185;-77
2023/09/26 00:38:38;;;;;;;5.67;4.90;;;17.00;99.90;;;;;;5019742;28;20952;-78
2023/09/26 00:41:06;;;;;;;5.57;4.70;;;17.00;99.90;;;;;;5019438;28;20181;-77
2023/09/26 00:43:31;;;;;;;4.53;4.10;;;17.00;99.90;;;;;;5016287;28;20212;-78
2023/09/26 00:45:59;;;;;;;5.10;4.63;;;16.90;99.90;;;;;;5003178;28;20458;-78
2023/09/26 00:48:25;;;;;;;5.47;4.30;;;16.90;99.90;;;;;;5014007;28;20236;-75
2023/09/26 00:50:55;;;;;;;5.23;4.50;;;16.90;99.90;;;;;;5023212;28;20403;-76
2023/09/26 00:53:25;;;;;;;7.33;4.50;;;16.90;99.90;;;;;;5017190;28;20290;-75
2023/09/26 00:55:54;;;;;;;6.00;4.50;;;16.90;99.90;;;;;;5021499;28;20939;-75
2023/09/26 00:58:22;;;;;;;6.00;5.07;;;16.90;99.90;;;;;;5024484;28;20832;-76
2023/09/26 01:00:50;;;;;;;5.30;4.70;;;16.90;99.90;;;;;;5017384;28;20781;-76
2023/09/26 01:03:16;;;;;;;7.40;5.30;;;16.90;99.90;;;;;;5003065;28;20447;-75
2023/09/26 01:05:42;;;;;;;6.27;5.27;;;16.90;99.90;;;;;;5018392;28;20482;-76
2023/09/26 01:08:08;;;;;;;5.50;4.00;;;16.80;99.90;;;;;;5001732;28;20177;-76
2023/09/26 01:10:35;;;;;;;6.20;5.13;;;16.80;99.90;;;;;;5016110;28;20419;-76
2023/09/26 01:13:02;;;;;;;5.33;4.83;;;16.80;99.90;;;;;;5018599;28;20446;-76
2023/09/26 01:15:38;;;;;;;6.60;4.67;;;16.70;99.90;;;;;;5014979;28;20446;-75
2023/09/26 01:18:08;;;;;;;6.80;4.97;;;16.70;99.90;;;;;;5015292;28;20961;-75
2023/09/26 01:20:34;;;;;;;5.40;4.67;;;16.70;99.90;;;;;;5019318;28;20438;-74
2023/09/26 01:23:05;;;;;;;5.83;4.80;;;16.70;99.90;;;;;;5014490;28;20518;-75
2023/09/26 01:25:35;;;;;;;4.87;4.30;;;16.70;99.90;;;;;;5019399;28;20491;-75
2023/09/26 01:28:06;;;;;;;7.00;5.30;;;16.70;99.90;;;;;;5017045;28;20433;-75
2023/09/26 01:30:37;;;;;;;6.90;5.07;;;16.70;99.90;;;;;;5016175;28;20411;-75
2023/09/26 01:33:11;;;;;;;6.63;4.60;;;16.60;99.90;;;;;;5008791;28;20459;-75
2023/09/26 01:35:36;;;;;;;6.20;5.47;;;16.60;99.90;;;;;;5014713;28;21096;-76
2023/09/26 01:38:02;;;;;;;6.00;5.00;;;16.60;99.90;;;;;;5014314;28;20522;-76
2023/09/26 01:40:28;;;;;;;6.57;4.93;;;16.60;99.90;;;;;;5016208;28;20185;-76
2023/09/26 01:42:54;;;;;;;6.40;5.40;;;16.50;99.90;;;;;;5018627;28;20200;-76
2023/09/26 01:45:19;;;;;;;7.20;4.83;;;16.60;99.90;;;;;;5016553;28;20254;-76
2023/09/26 01:47:46;;;;;;;5.60;4.73;;;16.60;99.90;;;;;;5018282;28;20188;-75
2023/09/26 01:50:12;;;;;;;5.70;5.20;;;16.50;99.90;;;;;;5028686;28;20264;-76
2023/09/26 01:52:38;;;;;;;5.37;4.70;;;16.50;99.90;;;;;;5021308;28;20923;-76
2023/09/26 01:55:08;;;;;;;5.80;4.57;;;16.50;99.90;;;;;;5013661;28;20302;-76
2023/09/26 01:57:34;;;;;;;5.40;4.57;;;16.50;99.90;;;;;;5017208;28;20172;-76
2023/09/26 02:00:12;;;;;;;4.83;4.23;;;16.50;99.90;;;;;;5018459;28;20423;-76
2023/09/26 02:02:43;;;;;;;7.80;4.77;;;16.50;99.90;;;;;;5029642;28;20435;-76
2023/09/26 02:05:13;;;;;;;6.33;4.40;;;16.50;99.90;;;;;;5012501;28;20463;-75
2023/09/26 02:07:39;;;;;;;7.40;4.50;;;16.40;99.90;;;;;;5018231;28;20508;-76
2023/09/26 02:10:05;;;;;;;4.80;4.30;;;16.40;99.90;;;;;;5015634;28;20506;-76
2023/09/26 02:12:36;;;;;;;6.00;4.83;;;16.40;99.90;;;;;;5022735;28;20267;-76
2023/09/26 02:15:05;;;;;;;5.80;4.53;;;16.40;99.90;;;;;;5015296;28;20837;-76
2023/09/26 02:17:33;;;;;;;4.90;4.47;;;16.40;99.90;;;;;;5015032;28;20443;-76
2023/09/26 02:20:00;;;;;;;5.60;4.73;;;16.30;99.90;;;;;;5013592;28;20427;-76
2023/09/26 02:22:25;;;;;;;5.23;4.50;;;16.30;99.90;;;;;;5018404;28;20431;-77
2023/09/26 02:24:52;;;;;;;6.40;4.40;;;16.30;99.90;;;;;;5019017;28;20463;-76
2023/09/26 02:27:17;;;;;;;5.90;4.57;;;16.30;99.90;;;;;;5012874;28;20169;-76
2023/09/26 02:29:44;;;;;;;6.37;4.63;;;16.20;99.90;;;;;;5018260;28;20981;-76
2023/09/26 02:32:10;;;;;;;6.33;4.80;;;16.20;99.90;;;;;;5005301;28;20674;-76
2023/09/26 02:34:36;;;;;;;6.80;4.73;;;16.20;99.90;;;;;;5019874;28;20448;-76
2023/09/26 02:37:01;;;;;;;4.83;4.33;;;16.20;99.90;;;;;;5021584;28;20690;-76
2023/09/26 02:39:27;;;;;;;4.97;4.33;;;16.20;99.90;;;;;;5020130;28;20420;-76
2023/09/26 02:41:53;;;;;;;6.20;5.20;;;16.20;99.90;;;;;;5038830;28;20467;-76
2023/09/26 02:44:20;;;;;;;4.53;4.00;;;16.10;99.90;;;;;;5010898;28;20993;-78
2023/09/26 02:46:46;;;;;;;6.13;4.80;;;16.00;99.90;;;;;;5024976;28;20521;-76
2023/09/26 02:49:11;;;;;;;5.00;4.30;;;16.00;99.90;;;;;;5020433;28;20176;-75
2023/09/26 02:51:37;;;;;;;6.87;4.80;;;15.90;99.90;;;;;;5004139;28;20238;-76
2023/09/26 02:54:03;;;;;;;7.57;4.30;;;15.90;99.90;;;;;;5024392;28;20212;-76
2023/09/26 02:56:28;;;;;;;6.73;4.30;;;15.80;99.90;;;;;;5025156;28;20168;-75
2023/09/26 02:58:54;;;;;;;6.00;5.13;;;15.80;99.90;;;;;;5020984;28;20203;-75
2023/09/26 03:01:20;;;;;;;6.00;5.07;;;15.80;99.90;;;;;;5040652;28;20238;-76
2023/09/26 03:03:47;;;;;;;6.27;4.67;;;15.70;99.90;;;;;;5023086;28;20227;-77
2023/09/26 03:06:12;;;;;;;5.90;4.47;;;15.70;99.90;;;;;;5009414;28;20443;-76
2023/09/26 03:08:38;;;;;;;5.83;4.80;;;15.60;99.90;;;;;;5022709;28;20453;-76
2023/09/26 03:11:03;;;;;;;4.87;4.37;;;15.60;99.90;;;;;;5026904;28;20729;-76
2023/09/26 03:13:35;;;;;;;9.27;5.23;;;15.50;99.90;;;;;;5020988;28;20200;-75
2023/09/26 03:16:02;;;;;;;6.17;4.70;;;15.60;99.90;;;;;;5021448;28;20184;-77
2023/09/26 03:18:27;;;;;;;5.40;4.90;;;15.50;99.90;;;;;;5025499;28;20415;-77
2023/09/26 03:20:53;;;;;;;5.97;5.00;;;15.50;99.90;;;;;;5020838;28;20465;-77
2023/09/26 03:23:21;;;;;;;6.27;4.30;;;15.50;99.90;;;;;;5026449;28;20612;-76
2023/09/26 03:25:46;;;;;;;8.77;6.17;;;15.50;99.90;;;;;;5022533;28;20254;-76
2023/09/26 03:28:12;;;;;;;5.97;5.00;;;15.50;99.90;;;;;;5009849;28;20426;-76
2023/09/26 03:30:43;;;;;;;8.20;5.53;;;15.60;99.90;;;;;;5017890;28;20447;-76
2023/09/26 03:33:12;;;;;;;5.80;5.13;;;15.50;99.90;;;;;;5026101;28;20209;-76
2023/09/26 03:35:38;;;;;;;6.60;5.43;;;15.60;99.90;;;;;;5032088;28;20551;-76
2023/09/26 03:38:03;;;;;;;5.13;4.63;;;15.50;99.90;;;;;;5031254;28;20462;-75
2023/09/26 03:40:29;;;;;;;11.60;6.50;;;15.50;99.90;;;;;;5036387;28;20562;-75
2023/09/26 03:42:55;;;;;;;6.17;5.03;;;15.50;99.90;;;;;;5016908;28;20786;-75
2023/09/26 03:45:24;;;;;;;7.63;5.30;;;15.50;99.90;;;;;;5024589;28;20516;-75
2023/09/26 03:47:52;;;;;;;6.03;4.70;;;15.50;99.90;;;;;;5022814;28;20183;-76
2023/09/26 03:50:18;;;;;;;6.03;4.80;;;15.50;99.90;;;;;;5003592;28;20423;-76
2023/09/26 03:52:43;;;;;;;7.80;5.10;;;15.50;99.90;;;;;;5021235;28;20514;-76
2023/09/26 03:55:09;;;;;;;6.10;4.77;;;15.50;99.90;;;;;;5004358;28;20243;-76
2023/09/26 03:57:35;;;;;;;5.13;4.30;;;15.50;99.90;;;;;;5018532;28;20231;-76
2023/09/26 04:00:07;;;;;;;7.17;4.90;;;15.50;99.90;;;;;;5019750;28;20180;-76
2023/09/26 04:02:33;;;;;;;4.97;4.47;;;15.50;99.90;;;;;;5023524;28;20514;-76
2023/09/26 04:04:58;;;;;;;5.17;4.40;;;15.50;99.90;;;;;;5020725;28;20566;-76
2023/09/26 04:07:28;;;;;;;6.50;4.80;;;15.40;99.90;;;;;;5021064;28;20212;-76
2023/09/26 04:09:53;;;;;;;6.60;4.73;;;15.40;99.90;;;;;;5019670;28;20182;-77
2023/09/26 04:12:19;;;;;;;5.70;4.33;;;15.30;99.90;;;;;;5017302;28;20453;-76
2023/09/26 04:14:44;;;;;;;6.87;4.90;;;15.40;99.90;;;;;;5020914;28;20192;-75
2023/09/26 04:17:10;;;;;;;6.60;4.83;;;15.30;99.90;;;;;;5026148;28;20722;-75
2023/09/26 04:19:36;;;;;;;5.50;4.90;;;15.30;99.90;;;;;;5016050;28;20274;-76
2023/09/26 04:22:03;;;;;;;6.73;5.07;;;15.30;99.90;;;;;;5017204;28;20885;-75
2023/09/26 04:24:29;;;;;;;4.97;4.30;;;15.20;99.90;;;;;;5026957;28;20204;-76
2023/09/26 04:26:54;;;;;;;5.57;4.73;;;15.20;99.90;;;;;;5005999;28;20540;-76
2023/09/26 04:29:20;;;;;;;5.50;4.60;;;15.20;99.90;;;;;;5026043;28;20236;-77
2023/09/26 04:31:46;;;;;;;5.67;4.57;;;15.30;99.90;;;;;;5020189;28;20203;-77
2023/09/26 04:34:11;;;;;;;6.30;4.80;;;15.20;99.90;;;;;;5019168;28;20470;-76
2023/09/26 04:36:37;;;;;;;6.83;5.23;;;15.20;99.90;;;;;;5018909;28;20201;-77
2023/09/26 04:39:03;;;;;;;5.80;4.53;;;15.20;99.90;;;;;;5024438;28;20200;-76
2023/09/26 04:41:28;;;;;;;6.60;4.80;;;15.20;99.90;;;;;;5026140;28;20172;-77
2023/09/26 04:43:54;;;;;;;6.73;5.00;;;15.20;99.90;;;;;;5018573;28;20196;-77
2023/09/26 04:46:20;;;;;;;5.20;4.53;;;15.20;99.90;;;;;;5017290;28;20184;-77
2023/09/26 04:48:46;;;;;;;6.70;5.20;;;15.20;99.90;;;;;;4999620;28;20562;-77
2023/09/26 04:51:14;;;;;;;6.60;5.20;;;15.10;99.90;;;;;;5015688;28;20208;-77
2023/09/26 04:53:41;;;;;;;6.40;5.80;;;15.20;99.90;;;;;;5003060;28;20450;-77
2023/09/26 04:56:07;;;;;;;5.17;4.30;;;15.10;99.90;;;;;;5018640;28;20468;-77
2023/09/26 04:58:33;;;;;;;6.17;5.40;;;15.10;99.90;;;;;;5025811;28;20502;-77
2023/09/26 05:01:09;;;;;;;6.70;4.67;;;15.10;99.90;;;;;;5023370;28;20449;-77
2023/09/26 05:03:35;;;;;;;5.20;4.60;;;15.10;99.90;;;;;;5021071;28;20989;-77
2023/09/26 05:06:00;;;;;;;5.97;5.00;;;15.10;99.90;;;;;;5017178;28;20463;-77
2023/09/26 05:08:26;;;;;;;8.03;4.43;;;15.00;99.90;;;;;;5022089;28;20196;-77
2023/09/26 05:10:52;;;;;;;6.50;4.30;;;15.00;99.90;;;;;;5017316;28;20191;-76
2023/09/26 05:13:18;;;;;;;5.33;4.53;;;15.00;99.90;;;;;;5017055;28;20235;-76
2023/09/26 05:15:44;;;;;;;6.23;5.33;;;15.00;99.90;;;;;;5016970;28;20451;-76
2023/09/26 05:18:09;;;;;;;6.03;4.60;;;14.90;99.90;;;;;;5019182;28;20196;-75
2023/09/26 05:20:35;;;;;;;8.20;5.30;;;15.00;99.90;;;;;;5018758;28;20180;-76
2023/09/26 05:23:03;;;;;;;5.87;4.87;;;15.00;99.90;;;;;;5015539;28;20192;-75
2023/09/26 05:25:28;;;;;;;6.63;4.60;;;15.00;99.90;;;;;;5019912;28;20565;-76
2023/09/26 05:27:54;;;;;;;5.87;4.80;;;15.00;99.90;;;;;;5017652;28;20530;-76
2023/09/26 05:30:20;;;;;;;5.13;4.63;;;15.00;99.90;;;;;;5014813;28;20659;-76
2023/09/26 05:32:45;;;;;;;6.57;4.67;;;15.00;99.90;;;;;;5032089;28;20296;-76
2023/09/26 05:35:12;;;;;;;5.20;4.70;;;15.00;99.90;;;;;;5020564;28;20191;-76
2023/09/26 05:37:38;;;;;;;5.30;4.70;;;15.00;99.90;;;;;;5018177;28;20198;-77
2023/09/26 05:40:06;;;;;;;5.33;4.80;;;15.00;99.90;;;;;;5022515;28;20502;-76
2023/09/26 05:42:36;;;;;;;5.67;5.03;;;15.00;99.90;;;;;;5021927;28;20514;-76
2023/09/26 05:45:03;;;;;;;6.77;4.70;;;15.00;99.90;;;;;;5024394;28;20493;-76
2023/09/26 05:47:29;;;;;;;5.80;4.67;;;15.00;99.90;;;;;;5006294;28;21177;-74
2023/09/26 05:49:54;;;;;;;5.53;5.00;;;14.90;99.90;;;;;;5018108;28;20443;-74
2023/09/26 05:52:20;;;;;;;6.40;5.00;;;14.90;99.90;;;;;;5017400;28;20299;-74
2023/09/26 05:54:47;;;;;;;8.70;5.10;;;14.90;99.90;;;;;;5014356;28;20204;-74
2023/09/26 05:57:16;;;;;;;7.70;5.13;;;14.90;99.90;;;;;;4998974;28;20188;-74
2023/09/26 05:59:42;;;;;;;6.13;5.30;;;14.90;99.90;;;;;;5016042;28;20426;-74
2023/09/26 06:02:13;;;;;;;7.30;5.60;;;14.90;99.90;;;;;;5020270;28;20941;-74
2023/09/26 06:04:42;;;;;;;7.33;5.50;;;14.90;99.90;;;;;;5020261;28;20479;-75
2023/09/26 06:07:09;;;;;;;9.57;6.80;;;14.80;99.90;;;;;;5006722;28;20440;-74
2023/09/26 06:09:36;;;;;;;9.20;6.43;;;14.90;99.90;;;;;;5021437;28;20428;-73
2023/09/26 06:12:05;;;;;;;7.90;7.10;;;14.90;99.90;;;;;;5016579;28;20449;-74
2023/09/26 06:14:34;;;;;;;7.30;5.47;;;14.90;99.90;;;;;;5009880;28;20485;-75
2023/09/26 06:17:00;;;;;;;7.87;6.37;;;14.90;99.90;;;;;;5013327;28;20903;-74
2023/09/26 06:19:25;;;;;;;8.83;5.80;;;15.00;99.90;;;;;;5018308;28;20603;-74
2023/09/26 06:21:51;;;;;;;5.90;5.33;;;15.00;99.90;;;;;;5010627;28;20176;-74
2023/09/26 06:24:16;;;;;;;6.93;5.27;;;15.00;99.90;;;;;;5009859;28;20825;-73
2023/09/26 06:26:42;;;;;;;11.00;5.80;;;15.00;99.90;;;;;;5021202;28;20186;-74
2023/09/26 06:29:08;;;;;;;7.10;5.50;;;15.00;99.90;;;;;;4991442;28;20215;-74
2023/09/26 06:31:33;;;;;;;9.23;5.07;;;15.00;99.90;;;;;;5016865;28;20220;-73
2023/09/26 06:34:01;;;;;;;8.37;6.43;;;15.00;99.90;;;;;;5030098;28;20213;-74
2023/09/26 06:36:30;;;;;;;7.27;6.00;;;15.00;99.90;;;;;;5028858;28;20185;-73
2023/09/26 06:38:57;;;;;;;10.20;5.17;;;15.00;99.90;;;;;;5027964;28;20812;-74
2023/09/26 06:41:26;;;;;;;8.37;6.20;;;15.10;99.90;;;;;;5024216;28;20423;-74
2023/09/26 06:43:51;;;;;;;6.20;5.47;;;15.10;99.90;;;;;;5028324;28;20446;-74
2023/09/26 06:46:17;;;;;;;9.03;6.20;;;15.10;99.90;;;;;;5013133;28;21814;-73
2023/09/26 06:48:43;;;;;;;9.70;6.53;;;15.10;99.90;;;;;;5018060;28;20546;-75
2023/09/26 06:51:08;;;;;;;9.10;6.27;;;15.20;99.90;;;;;;5020821;28;20184;-74
2023/09/26 06:53:35;;;;;;;8.20;6.60;;;15.20;99.90;;;;;;5020128;28;20208;-75
2023/09/26 06:56:08;;;;;;;8.17;5.93;;;15.20;99.90;;;;;;5020124;28;20187;-75
2023/09/26 06:58:35;;;;;;;10.30;7.20;;;15.20;99.90;;;;;;5030652;28;20447;-74
2023/09/26 07:01:01;;;;;;;8.90;7.00;;;15.30;99.90;;;;;;5022269;28;20427;-76
2023/09/26 07:03:27;;;;;;;9.70;7.40;;;15.30;99.90;;;;;;5018007;28;20459;-75
2023/09/26 07:05:54;;;;;;;12.27;7.70;;;15.40;99.90;;;;;;5015405;28;20251;-76
2023/09/26 07:08:20;;;;;;;10.67;7.17;;;15.40;99.90;;;;;;5017106;28;20411;-75
2023/09/26 07:10:46;;;;;;;10.50;7.50;;;15.50;99.90;;;;;;5012627;28;20432;-74
2023/09/26 07:13:12;;;;;;;10.10;8.17;;;15.50;99.90;;;;;;5016046;28;20275;-76
2023/09/26 07:15:37;;;;;;;9.73;7.40;;;15.60;99.90;;;;;;5015470;28;20424;-77
2023/09/26 07:18:06;;;;;;;9.83;7.43;;;15.60;99.90;;;;;;5021262;28;20442;-76
2023/09/26 07:20:33;;;;;;;8.10;7.30;;;15.60;99.90;;;;;;5020478;28;20659;-76
2023/09/26 07:22:59;;;;;;;8.93;6.93;;;15.70;99.90;;;;;;5024168;28;20463;-75
2023/09/26 07:25:25;;;;;;;8.23;7.10;;;15.70;99.90;;;;;;5021446;28;20479;-75
2023/09/26 07:27:51;;;;;;;13.50;8.50;;;15.70;99.90;;;;;;5021730;28;20497;-77
2023/09/26 07:30:16;;;;;;;10.20;6.90;;;15.80;99.90;;;;;;5027150;28;20189;-76
2023/09/26 07:32:42;;;;;;;9.23;8.33;;;15.80;99.90;;;;;;5022442;28;20204;-76
2023/09/26 07:35:08;;;;;;;13.07;8.20;;;15.90;99.90;;;;;;5022210;28;20196;-76
2023/09/26 07:37:34;;;;;;;9.50;7.50;;;15.90;99.90;;;;;;5020929;28;20192;-76
2023/09/26 07:40:02;;;;;;;9.50;8.30;;;15.90;99.90;;;;;;5021491;28;20527;-76
2023/09/26 07:42:27;;;;;;;10.67;7.87;;;16.00;99.90;;;;;;5022479;28;20419;-76
2023/09/26 07:44:58;;;;;;;9.90;8.67;;;16.10;99.90;;;;;;5033775;28;20529;-76
2023/09/26 07:47:24;;;;;;;11.43;8.23;;;16.00;99.90;;;;;;5003387;28;20189;-77
2023/09/26 07:49:49;;;;;;;8.80;7.90;;;16.10;99.90;;;;;;5022495;28;20481;-76
2023/09/26 07:52:15;;;;;;;10.93;7.90;;;16.20;99.90;;;;;;5025777;28;20431;-76
2023/09/26 07:54:41;;;;;;;9.17;8.20;;;16.30;99.90;;;;;;5021082;28;20287;-76
2023/09/26 07:57:06;;;;;;;11.50;9.60;;;16.30;99.90;;;;;;5007625;28;20559;-76
2023/09/26 07:59:32;;;;;;;10.00;9.00;;;16.30;99.90;;;;;;5023533;28;21743;-76
2023/09/26 08:01:57;;;;;;;10.83;9.53;;;16.40;99.90;;;;;;5034191;28;20237;-76
2023/09/26 08:04:23;;;;;;;11.27;9.27;;;16.40;99.90;;;;;;5022762;28;20589;-76
2023/09/26 08:06:49;;;;;;;10.73;9.63;;;16.50;99.90;;;;;;5021519;28;20195;-77
2023/09/26 08:09:15;;;;;;;9.37;7.87;;;16.50;99.90;;;;;;5021554;28;20181;-76
2023/09/26 08:11:41;;;;;;;9.80;8.17;;;16.50;99.90;;;;;;5021146;28;20181;-76
2023/09/26 08:14:07;;;;;;;9.00;7.80;;;16.60;99.90;;;;;;5022854;28;20447;-76
2023/09/26 08:16:33;;;;;;;9.77;8.87;;;16.70;99.90;;;;;;5024698;28;20434;-76
2023/09/26 08:18:59;;;;;;;9.63;8.40;;;16.70;99.90;;;;;;5006546;28;20442;-77
2023/09/26 08:21:26;;;;;;;13.70;11.33;;;16.80;99.90;;;;;;5032695;28;20191;-76
2023/09/26 08:23:54;;;;;;;11.77;9.10;;;16.90;99.90;;;;;;5016252;28;20307;-75
2023/09/26 08:26:19;;;;;;;8.00;7.20;;;16.90;99.90;;;;;;5018995;28;21000;-76
2023/09/26 08:28:45;;;;;;;8.90;7.57;;;16.90;99.90;;;;;;5015007;28;20424;-76
2023/09/26 08:31:15;;;;;;;10.50;8.30;;;17.00;99.90;;;;;;5022694;28;20271;-76
2023/09/26 08:33:41;;;;;;;10.93;9.60;;;17.00;99.90;;;;;;5004523;28;20212;-76
2023/09/26 08:36:18;;;;;;;9.77;7.97;;;17.10;99.90;;;;;;4995239;28;20443;-75
2023/09/26 08:38:45;;;;;;;9.57;7.23;;;17.20;99.90;;;;;;5015429;28;20477;-74
2023/09/26 08:41:12;;;;;;;10.00;7.43;;;17.20;99.90;;;;;;5000568;28;20785;-77
2023/09/26 08:43:38;;;;;;;8.83;7.40;;;17.30;99.90;;;;;;5021188;28;20448;-81
2023/09/26 08:46:05;;;;;;;10.47;7.60;;;17.30;99.90;;;;;;5023035;28;20471;-82
2023/09/26 08:48:32;;;;;;;10.83;7.70;;;17.30;99.90;;;;;;5026221;28;20198;-83
2023/09/26 08:50:58;;;;;;;9.73;8.00;;;17.40;99.90;;;;;;5033484;28;20411;-84
2023/09/26 08:53:24;;;;;;;8.33;6.37;;;17.40;99.90;;;;;;5030158;28;20435;-82
2023/09/26 08:55:50;;;;;;;10.00;7.47;;;17.50;99.90;;;;;;5031157;28;20547;-80
2023/09/26 08:58:17;;;;;;;9.53;6.90;;;17.50;99.90;;;;;;5032081;28;20208;-81
2023/09/26 09:00:43;;;;;;;9.30;7.10;;;17.50;99.90;;;;;;5029717;28;20184;-80
2023/09/26 09:03:09;;;;;;;8.00;6.80;;;17.60;99.90;;;;;;5030757;28;20439;-82
2023/09/26 09:05:34;;;;;;;8.90;7.57;;;17.60;99.90;;;;;;5044034;28;20467;-83
2023/09/26 09:08:00;;;;;;;9.47;6.23;;;17.70;99.90;;;;;;5024347;28;20220;-81
2023/09/26 09:10:26;;;;;;;7.90;7.10;;;17.80;99.90;;;;;;5038997;28;20182;-83
2023/09/26 09:13:02;;;;;;;8.33;7.27;;;17.80;99.90;;;;;;5036818;28;20214;-81
2023/09/26 09:15:29;;;;;;;8.37;7.00;;;17.90;99.90;;;;;;5023664;28;20422;-82
2023/09/26 09:17:55;;;;;;;8.70;6.83;;;18.00;99.90;;;;;;5028154;28;20448;-83
2023/09/26 09:20:34;;;;;;;8.33;7.40;;;18.10;99.90;;;;;;5033504;28;20482;-82
2023/09/26 09:23:02;;;;;;;8.23;7.27;;;18.10;99.90;;;;;;5029112;28;20200;-82
2023/09/26 09:25:38;;;;;;;9.47;8.30;;;18.20;99.90;;;;;;5025115;28;20458;-79
2023/09/26 09:28:07;;;;;;;9.50;7.13;;;18.30;99.90;;;;;;5019865;28;20484;-79
2023/09/26 09:30:42;;;;;;;10.17;7.03;;;18.30;99.90;;;;;;4991861;28;20552;-82
2023/09/26 09:33:09;;;;;;;7.47;6.77;;;18.40;99.90;;;;;;5031378;28;20465;-81
2023/09/26 09:35:35;;;;;;;7.80;6.40;;;18.50;99.90;;;;;;5039884;28;20422;-81
2023/09/26 09:38:02;;;;;;;11.27;6.27;;;18.50;99.90;;;;;;5029130;28;20461;-80
2023/09/26 09:40:28;;;;;;;7.70;6.30;;;18.50;99.90;;;;;;5028146;28;20498;-82
2023/09/26 09:42:55;;;;;;;7.17;6.47;;;18.50;99.90;;;;;;5034061;28;20902;-79
2023/09/26 09:45:21;;;;;;;7.60;6.90;;;18.50;99.90;;;;;;5020276;28;21187;-82
2023/09/26 09:47:48;;;;;;;8.10;5.90;;;18.60;99.90;;;;;;5024311;28;20434;-80
2023/09/26 09:50:15;;;;;;;8.03;6.90;;;18.70;99.90;;;;;;5030088;28;20889;-81
2023/09/26 09:52:43;;;;;;;10.03;7.20;;;18.70;99.90;;;;;;5025450;28;21156;-79
2023/09/26 09:55:15;;;;;;;7.43;6.63;;;18.80;99.90;;;;;;5021772;28;20434;-80
2023/09/26 09:57:45;;;;;;;9.97;6.73;;;18.90;99.90;;;;;;5022315;28;20489;-79
2023/09/26 10:00:13;;;;;;;7.47;6.20;;;18.90;99.90;;;;;;5023998;28;20439;-80
2023/09/26 10:02:40;;;;;;;8.67;7.00;;;19.00;99.90;;;;;;5004120;28;20418;-80
2023/09/26 10:05:12;;;;;;;7.40;6.67;;;19.10;99.90;;;;;;5025117;28;20472;-80
2023/09/26 10:07:45;;;;;;;7.40;6.67;;;19.10;99.90;;;;;;5031096;28;20446;-81
2023/09/26 10:10:13;;;;;;;15.07;10.70;;;19.20;99.90;;;;;;5033401;28;20423;-82
2023/09/26 10:12:40;;;;;;;8.23;6.47;;;19.30;99.90;;;;;;5037857;28;20958;-80
2023/09/26 10:15:13;;;;;;;7.57;6.43;;;19.40;99.90;;;;;;5033160;28;20948;-81
2023/09/26 10:17:48;;;;;;;9.43;6.30;;;19.40;99.90;;;;;;5034854;28;20410;-79
2023/09/26 10:20:15;;;;;;;6.60;5.90;;;19.50;99.90;;;;;;5031808;28;20407;-81
2023/09/26 10:22:45;;;;;;;9.53;7.13;;;19.40;99.90;;;;;;5032591;28;20438;-80
2023/09/26 10:25:19;;;;;;;8.67;7.40;;;19.50;99.90;;;;;;5020943;28;20562;-79
2023/09/26 10:27:46;;;;;;;14.60;7.30;;;19.60;99.90;;;;;;5005104;28;21252;-81
2023/09/26 10:30:14;;;;;;;11.87;7.70;;;19.70;99.90;;;;;;5020888;28;20877;-79
2023/09/26 10:32:42;;;;;;;9.77;7.77;;;19.80;99.90;;;;;;5003334;28;20439;-81
2023/09/26 10:35:14;;;;;;;8.53;7.63;;;19.70;99.90;;;;;;5029144;28;20431;-80
2023/09/26 10:37:50;;;;;;;8.87;7.67;;;19.80;99.90;;;;;;5016946;28;20432;-81
2023/09/26 10:40:16;;;;;;;8.87;7.00;;;19.90;99.90;;;;;;5022546;28;20415;-81
2023/09/26 10:42:43;;;;;;;8.93;7.53;;;20.00;99.90;;;;;;5021903;28;20404;-81
2023/09/26 10:45:10;;;;;;;11.90;9.30;;;20.10;99.90;;;;;;5022823;28;20463;-81
2023/09/26 10:47:38;;;;;;;6.80;6.17;;;20.10;99.90;;;;;;5022617;28;20446;-81
2023/09/26 10:50:14;;;;;;;8.70;6.47;;;20.20;99.90;;;;;;5021175;28;20505;-80
2023/09/26 10:52:47;;;;;;;7.57;6.77;;;20.30;99.90;;;;;;5025509;28;20502;-80
2023/09/26 10:55:22;;;;;;;7.77;6.83;;;20.30;99.90;;;;;;5002917;28;20865;-80
2023/09/26 10:57:51;;;;;;;14.53;9.43;;;20.30;99.90;;;;;;5024479;28;21039;-80
2023/09/26 11:00:17;;;;;;;12.23;6.43;;;20.40;99.90;;;;;;5028263;28;20427;-81
2023/09/26 11:02:45;;;;;;;8.20;6.60;;;20.50;99.90;;;;;;5021989;28;20523;-80
2023/09/26 11:05:13;;;;;;;14.73;7.23;;;20.50;99.90;;;;;;5025153;28;20483;-80
2023/09/26 11:07:40;;;;;;;6.83;6.23;;;20.50;99.90;;;;;;5012039;28;20419;-81
2023/09/26 11:10:14;;;;;;;12.77;6.77;;;20.50;99.90;;;;;;5007050;28;20489;-81
2023/09/26 11:12:40;;;;;;;7.03;5.30;;;20.60;99.90;;;;;;5026892;28;20429;-81
2023/09/26 11:15:07;;;;;;;7.23;6.50;;;20.70;99.90;;;;;;5007572;28;20450;-79
2023/09/26 11:17:34;;;;;;;7.60;6.80;;;20.80;99.90;;;;;;4997520;28;20430;-79
2023/09/26 11:20:00;;;;;;;8.60;7.27;;;20.90;99.90;;;;;;5024731;28;20570;-79
2023/09/26 11:22:26;;;;;;;7.23;6.53;;;21.10;99.90;;;;;;5008894;28;20470;-78
2023/09/26 11:25:08;;;;;;;7.73;5.73;;;21.10;99.90;;;;;;5029182;28;20212;-79
2023/09/26 11:27:41;;;;;;;11.00;8.20;;;21.10;99.90;;;;;;5028496;28;20459;-79
2023/09/26 11:30:12;;;;;;;7.30;5.27;;;21.20;99.90;;;;;;5025259;28;20431;-79
2023/09/26 11:32:39;;;;;;;7.50;5.90;;;21.30;99.90;;;;;;5025144;28;20422;-79
2023/09/26 11:35:06;;;;;;;7.80;5.10;;;21.40;99.90;;;;;;5004133;28;20450;-79
2023/09/26 11:37:32;;;;;;;6.80;5.80;;;21.50;99.90;;;;;;5021260;28;20542;-79
2023/09/26 11:40:01;;;;;;;8.33;6.60;;;21.60;99.90;;;;;;5008543;28;21043;-80
2023/09/26 11:42:27;;;;;;;8.77;6.43;;;21.80;99.90;;;;;;5033096;28;20412;-80
2023/09/26 11:44:54;;;;;;;9.90;6.30;;;21.90;99.90;;;;;;5030909;28;20879;-80
2023/09/26 11:47:21;;;;;;;5.83;5.10;;;22.00;99.90;;;;;;5030210;28;20202;-80
2023/09/26 11:49:47;;;;;;;6.87;5.47;;;22.20;99.90;;;;;;5028614;28;20431;-80
2023/09/26 11:52:13;;;;;;;7.87;5.93;;;22.40;99.90;;;;;;5027165;28;20411;-81
2023/09/26 11:54:39;;;;;;;8.20;5.70;;;23.00;99.90;;;;;;5011748;28;20507;-81
2023/09/26 11:57:05;;;;;;;6.07;4.93;;;24.00;99.90;;;;;;5038479;28;20191;-80
2023/09/26 11:59:30;;;;;;;5.70;5.07;;;25.00;99.90;;;;;;5032711;28;20188;-80
2023/09/26 12:01:58;;;;;;;8.40;5.67;;;25.90;99.90;;;;;;5020309;28;20192;-80
2023/09/26 12:04:25;;;;;;;9.33;6.73;;;26.80;99.90;;;;;;5020209;28;20702;-80
2023/09/26 12:06:50;;;;;;;6.97;4.90;;;27.70;99.90;;;;;;5020985;28;20967;-79
2023/09/26 12:09:21;;;;;;;5.90;4.70;;;28.40;99.90;;;;;;5018958;28;20415;-80
2023/09/26 12:11:48;;;;;;;5.70;5.20;;;29.10;99.90;;;;;;5017865;28;20689;-79
2023/09/26 12:14:15;;;;;;;5.00;4.50;;;29.70;99.40;;;;;;5023724;28;20401;-80
2023/09/26 12:16:42;;;;;;;8.60;6.10;;;30.20;97.60;;;;;;5020154;28;20509;-80
2023/09/26 12:19:08;;;;;;;7.73;5.80;;;30.60;95.90;;;;;;5022733;28;20919;-80
2023/09/26 12:21:34;;;;;;;5.97;4.37;;;31.00;94.40;;;;;;5018692;28;20433;-81
2023/09/26 12:24:00;;;;;;;6.40;4.73;;;31.50;92.70;;;;;;5019843;28;20443;-82
2023/09/26 12:26:25;;;;;;;6.30;4.13;;;31.80;91.30;;;;;;5026514;28;20595;-82
2023/09/26 12:28:51;;;;;;;8.13;6.60;;;32.20;89.70;;;;;;5035840;28;20261;-83
2023/09/26 12:31:17;;;;;;;6.80;5.73;;;32.50;86.60;;;;;;5040272;28;20195;-80
2023/09/26 12:33:43;;;;;;;4.97;4.47;;;32.80;82.90;;;;;;5030401;28;20853;-82
2023/09/26 12:36:09;;;;;;;5.80;4.73;;;33.00;78.80;;;;;;5017868;28;20192;-82
2023/09/26 12:38:34;;;;;;;6.60;4.80;;;33.00;75.00;;;;;;5023980;28;20426;-82
2023/09/26 12:41:00;;;;;;;7.23;4.87;;;33.00;74.10;;;;;;5025890;28;20184;-81
2023/09/26 12:43:26;;;;;;;6.53;4.80;;;33.20;72.20;;;;;;5021827;28;20580;-81
2023/09/26 12:45:51;;;;;;;5.87;5.37;;;33.40;71.50;;;;;;5006189;28;20200;-82